createdAt,value
2023-03-18T00:02:22.811Z,6.17
2023-03-18T00:04:51.235Z,6.60
2023-03-18T00:07:23.760Z,6.40
2023-03-18T00:09:58.773Z,6.37
2023-03-18T00:12:29.229Z,6.03
2023-03-18T00:14:56.886Z,5.03
2023-03-18T00:17:25.625Z,5.23
2023-03-18T00:19:54.104Z,4.00
2023-03-18T00:22:24.611Z,4.27
2023-03-18T00:24:53.082Z,4.13
2023-03-18T00:27:20.762Z,4.33
2023-03-18T00:29:48.362Z,4.30
2023-03-18T00:32:18.313Z,4.50
2023-03-18T00:34:46.503Z,3.80
2023-03-18T00:37:19.025Z,4.50
2023-03-18T00:39:48.363Z,4.50
2023-03-18T00:42:17.514Z,4.60
2023-03-18T00:44:45.248Z,4.83
2023-03-18T00:47:13.439Z,4.23
2023-03-18T00:49:41.130Z,4.20
2023-03-18T00:52:12.283Z,4.93
2023-03-18T00:54:40.082Z,4.93
2023-03-18T00:57:10.774Z,4.60
2023-03-18T00:59:38.332Z,5.03
2023-03-18T01:02:06.155Z,5.03
2023-03-18T01:04:33.777Z,4.90
2023-03-18T01:07:02.664Z,5.00
2023-03-18T01:09:30.279Z,4.60
2023-03-18T01:11:57.914Z,4.73
2023-03-18T01:14:27.780Z,4.97
2023-03-18T01:16:56.007Z,5.20
2023-03-18T01:19:24.103Z,5.00
2023-03-18T01:21:51.689Z,5.10
2023-03-18T01:24:19.257Z,4.70
2023-03-18T01:26:47.063Z,4.77
2023-03-18T01:29:14.671Z,5.60
2023-03-18T01:31:43.736Z,5.50
2023-03-18T01:34:11.304Z,5.43
2023-03-18T01:36:38.913Z,5.40
2023-03-18T01:39:06.983Z,5.20
2023-03-18T01:41:36.603Z,5.73
2023-03-18T01:44:05.031Z,5.93
2023-03-18T01:46:38.584Z,5.33
2023-03-18T01:49:10.718Z,5.33
2023-03-18T01:54:20.985Z,5.20
2023-03-18T01:56:50.453Z,5.00
2023-03-18T01:59:18.515Z,5.37
2023-03-18T02:01:51.564Z,4.37
2023-03-18T02:04:21.358Z,4.77
2023-03-18T02:06:48.944Z,5.00
2023-03-18T02:09:16.557Z,4.20
2023-03-18T02:11:49.780Z,3.80
2023-03-18T02:14:20.499Z,3.87
2023-03-18T02:16:50.333Z,4.73
2023-03-18T02:19:32.716Z,5.27
2023-03-18T02:22:09.637Z,5.57
2023-03-18T02:24:42.479Z,5.83
2023-03-18T02:27:18.630Z,5.67
2023-03-18T02:29:46.733Z,6.20
2023-03-18T02:32:15.333Z,5.37
2023-03-18T02:34:44.141Z,5.07
2023-03-18T02:37:12.087Z,5.33
2023-03-18T02:39:39.716Z,5.23
2023-03-18T02:42:07.562Z,5.67
2023-03-18T02:44:40.437Z,5.60
2023-03-18T02:47:11.597Z,4.93
2023-03-18T02:49:39.257Z,3.40
2023-03-18T02:52:07.413Z,3.90
2023-03-18T02:54:35.009Z,3.40
2023-03-18T02:57:02.818Z,3.67
2023-03-18T02:59:32.408Z,3.30
2023-03-18T03:02:02.064Z,3.60
2023-03-18T03:04:29.794Z,3.20
2023-03-18T03:06:57.919Z,3.23
2023-03-18T03:09:26.081Z,3.30
2023-03-18T03:11:53.706Z,3.20
2023-03-18T03:14:21.601Z,3.90
2023-03-18T03:16:49.608Z,3.30
2023-03-18T03:19:18.563Z,3.17
2023-03-18T03:21:46.270Z,2.97
2023-03-18T03:24:13.852Z,3.00
2023-03-18T03:26:41.410Z,3.57
2023-03-18T03:29:09.456Z,4.00
2023-03-18T03:31:37.092Z,3.50
2023-03-18T03:34:04.820Z,3.50
2023-03-18T03:36:34.110Z,3.07
2023-03-18T03:39:02.216Z,3.57
2023-03-18T03:41:29.798Z,3.57
2023-03-18T03:43:57.397Z,3.50
2023-03-18T03:46:25.159Z,3.50
2023-03-18T03:48:52.708Z,3.33
2023-03-18T03:51:20.305Z,3.30
2023-03-18T03:53:49.304Z,3.07
2023-03-18T03:56:17.525Z,3.50
2023-03-18T03:58:45.781Z,3.80
2023-03-18T04:01:13.440Z,3.47
2023-03-18T04:03:41.060Z,3.27
2023-03-18T04:06:09.072Z,3.53
2023-03-18T04:08:36.764Z,3.30
2023-03-18T04:11:06.030Z,3.47
2023-03-18T04:13:33.766Z,3.90
2023-03-18T04:16:01.434Z,3.73
2023-03-18T04:18:29.059Z,4.00
2023-03-18T04:20:56.573Z,3.50
2023-03-18T04:23:24.105Z,4.10
2023-03-18T04:25:51.654Z,4.30
2023-03-18T04:28:20.597Z,4.07
2023-03-18T04:30:49.042Z,3.87
2023-03-18T04:33:16.662Z,3.77
2023-03-18T04:35:44.511Z,4.43
2023-03-18T04:38:12.481Z,4.73
2023-03-18T04:40:40.060Z,4.60
2023-03-18T04:43:07.706Z,4.07
2023-03-18T04:45:36.632Z,4.00
2023-03-18T04:48:04.204Z,4.10
2023-03-18T04:50:32.036Z,3.40
2023-03-18T04:53:00.160Z,3.30
2023-03-18T04:55:28.054Z,3.60
2023-03-18T04:57:55.657Z,3.10
2023-03-18T05:00:23.712Z,3.03
2023-03-18T05:02:52.677Z,3.40
2023-03-18T05:05:21.064Z,2.60
2023-03-18T05:07:48.608Z,3.10
2023-03-18T05:10:16.673Z,2.77
2023-03-18T05:12:44.326Z,3.20
2023-03-18T05:15:13.105Z,3.10
2023-03-18T05:17:41.248Z,2.70
2023-03-18T05:20:13.331Z,3.10
2023-03-18T05:22:40.973Z,2.60
2023-03-18T05:25:11.109Z,3.20
2023-03-18T05:27:38.746Z,2.37
2023-03-18T05:30:07.432Z,2.77
2023-03-18T05:32:35.416Z,2.30
2023-03-18T05:35:03.795Z,2.73
2023-03-18T05:37:32.795Z,2.30
2023-03-18T05:40:01.318Z,2.63
2023-03-18T05:42:29.131Z,2.13
2023-03-18T05:44:57.894Z,2.40
2023-03-18T05:47:25.475Z,3.10
2023-03-18T05:49:53.028Z,2.93
2023-03-18T05:52:20.670Z,2.50
2023-03-18T05:54:50.141Z,2.47
2023-03-18T05:57:17.937Z,3.03
2023-03-18T05:59:45.477Z,2.90
2023-03-18T06:02:13.110Z,2.90
2023-03-18T06:04:41.144Z,2.63
2023-03-18T06:07:08.889Z,2.63
2023-03-18T06:09:36.824Z,2.70
2023-03-18T06:12:07.169Z,3.30
2023-03-18T06:14:35.404Z,2.53
2023-03-18T06:17:03.053Z,2.67
2023-03-18T06:19:32.096Z,3.20
2023-03-18T06:21:59.785Z,2.80
2023-03-18T06:24:27.520Z,3.10
2023-03-18T06:26:55.317Z,2.70
2023-03-18T06:29:25.216Z,2.97
2023-03-18T06:31:52.825Z,2.83
2023-03-18T06:34:20.397Z,2.60
2023-03-18T06:36:48.045Z,3.00
2023-03-18T06:39:15.582Z,3.20
2023-03-18T06:41:43.226Z,2.57
2023-03-18T06:44:11.117Z,2.43
2023-03-18T06:46:41.988Z,2.87
2023-03-18T06:49:11.489Z,2.60
2023-03-18T06:51:39.565Z,3.00
2023-03-18T06:54:07.240Z,2.60
2023-03-18T06:56:37.595Z,2.50
2023-03-18T06:59:05.381Z,2.30
2023-03-18T07:01:33.417Z,2.70
2023-03-18T07:04:02.804Z,2.97
2023-03-18T07:06:31.661Z,2.80
2023-03-18T07:08:59.475Z,2.50
2023-03-18T07:11:28.113Z,3.10
2023-03-18T07:13:55.723Z,3.40
2023-03-18T07:16:23.315Z,3.87
2023-03-18T07:18:50.935Z,2.87
2023-03-18T07:21:19.867Z,3.00
2023-03-18T07:23:47.498Z,3.07
2023-03-18T07:26:15.160Z,2.53
2023-03-18T07:28:42.823Z,2.90
2023-03-18T07:31:10.421Z,3.17
2023-03-18T07:33:38.014Z,2.73
2023-03-18T07:36:06.144Z,3.00
2023-03-18T07:38:35.807Z,2.90
2023-03-18T07:41:03.680Z,3.03
2023-03-18T07:43:31.488Z,2.33
2023-03-18T07:45:59.815Z,2.67
2023-03-18T07:48:27.375Z,3.27
2023-03-18T07:50:55.111Z,2.93
2023-03-18T07:53:22.902Z,2.60
2023-03-18T07:55:51.832Z,3.00
2023-03-18T07:58:19.723Z,3.00
2023-03-18T08:00:48.257Z,3.03
2023-03-18T08:03:16.770Z,2.87
2023-03-18T08:05:44.628Z,3.30
2023-03-18T08:08:12.500Z,2.70
2023-03-18T08:10:40.121Z,2.90
2023-03-18T08:13:09.171Z,2.60
2023-03-18T08:15:36.845Z,2.57
2023-03-18T08:18:06.026Z,1.97
2023-03-18T08:20:35.585Z,2.20
2023-03-18T08:23:03.857Z,2.10
2023-03-18T08:25:32.730Z,2.00
2023-03-18T08:28:00.548Z,1.87
2023-03-18T08:30:30.466Z,1.90
2023-03-18T08:32:58.279Z,2.17
2023-03-18T08:35:26.596Z,1.70
2023-03-18T08:37:54.344Z,1.87
2023-03-18T08:40:22.118Z,1.70
2023-03-18T08:42:49.990Z,1.70
2023-03-18T08:45:17.951Z,1.73
2023-03-18T08:47:47.249Z,1.97
2023-03-18T08:50:16.995Z,1.93
2023-03-18T08:52:44.829Z,2.30
2023-03-18T08:55:12.560Z,2.00
2023-03-18T08:57:40.437Z,2.60
2023-03-18T09:00:09.943Z,2.20
2023-03-18T09:02:37.720Z,2.10
2023-03-18T09:05:07.832Z,2.33
2023-03-18T09:07:36.214Z,2.60
2023-03-18T09:10:04.365Z,2.40
2023-03-18T09:12:32.022Z,2.10
2023-03-18T09:14:59.785Z,2.40
2023-03-18T09:17:45.242Z,1.90
2023-03-18T09:20:18.086Z,2.33
2023-03-18T09:22:47.031Z,2.20
2023-03-18T09:25:16.684Z,2.30
2023-03-18T09:27:45.749Z,2.00
2023-03-18T09:30:14.395Z,2.40
2023-03-18T09:32:42.337Z,1.90
2023-03-18T09:35:13.154Z,2.60
2023-03-18T09:37:42.370Z,2.17
2023-03-18T09:40:25.069Z,2.10
2023-03-18T09:43:00.482Z,2.60
2023-03-18T09:45:32.230Z,2.20
2023-03-18T09:48:11.344Z,2.10
2023-03-18T09:50:41.745Z,2.23
2023-03-18T09:53:22.453Z,2.20
2023-03-18T09:55:52.392Z,2.33
2023-03-18T09:58:24.928Z,3.00
2023-03-18T10:00:55.087Z,2.83
2023-03-18T10:03:29.027Z,2.63
2023-03-18T10:06:00.097Z,2.80
2023-03-18T10:08:45.414Z,3.07
2023-03-18T10:11:20.505Z,2.50
2023-03-18T10:13:49.647Z,2.37
2023-03-18T10:16:22.788Z,2.40
2023-03-18T10:18:50.600Z,2.40
2023-03-18T10:21:22.369Z,2.27
2023-03-18T10:23:57.012Z,2.40
2023-03-18T10:26:28.261Z,2.57
2023-03-18T10:29:03.772Z,1.90
2023-03-18T10:31:37.803Z,2.03
2023-03-18T10:34:09.571Z,1.87
2023-03-18T10:36:40.611Z,2.30
2023-03-18T10:39:16.366Z,1.97
2023-03-18T10:41:45.069Z,1.93
2023-03-18T10:44:19.132Z,1.93
2023-03-18T10:46:48.690Z,1.97
2023-03-18T10:49:18.986Z,2.10
2023-03-18T10:51:52.422Z,2.10
2023-03-18T10:54:25.890Z,2.10
2023-03-18T10:56:53.775Z,2.23
2023-03-18T10:59:22.554Z,2.03
2023-03-18T11:01:54.654Z,2.40
2023-03-18T11:04:24.062Z,2.60
2023-03-18T11:06:54.275Z,2.43
2023-03-18T11:09:32.036Z,2.50
2023-03-18T11:12:05.496Z,2.20
2023-03-18T11:14:33.847Z,2.30
2023-03-18T11:17:04.461Z,2.10
2023-03-18T11:19:33.385Z,2.20
2023-03-18T11:22:04.302Z,2.13
2023-03-18T11:24:42.441Z,2.23
2023-03-18T11:27:27.897Z,2.03
2023-03-18T11:29:58.989Z,2.00
2023-03-18T11:32:28.827Z,1.90
2023-03-18T11:34:58.264Z,1.87
2023-03-18T11:37:32.688Z,1.93
2023-03-18T11:40:25.754Z,2.50
2023-03-18T11:42:57.680Z,2.20
2023-03-18T11:45:45.063Z,1.73
2023-03-18T11:48:17.723Z,3.67
2023-03-18T11:50:58.497Z,2.40
2023-03-18T11:53:32.032Z,3.60
2023-03-18T11:56:03.547Z,3.10
2023-03-18T11:58:52.585Z,2.30
2023-03-18T12:01:24.967Z,2.00
2023-03-18T12:04:11.695Z,1.80
2023-03-18T12:06:42.956Z,2.20
2023-03-18T12:09:18.570Z,1.83
2023-03-18T12:11:57.134Z,1.63
2023-03-18T12:14:30.549Z,1.80
2023-03-18T12:17:07.444Z,1.97
2023-03-18T12:19:54.701Z,1.97
2023-03-18T12:22:34.440Z,1.90
2023-03-18T12:25:19.759Z,1.80
2023-03-18T12:27:56.635Z,2.30
2023-03-18T12:30:44.602Z,2.20
2023-03-18T12:33:23.456Z,2.10
2023-03-18T12:35:55.167Z,1.80
2023-03-18T12:38:43.596Z,1.57
2023-03-18T12:41:15.250Z,1.70
2023-03-18T12:43:52.674Z,1.90
2023-03-18T12:46:27.406Z,1.87
2023-03-18T12:48:58.984Z,1.73
2023-03-18T12:51:28.574Z,2.10
2023-03-18T12:53:58.173Z,2.10
2023-03-18T12:56:27.517Z,2.10
2023-03-18T12:59:01.130Z,1.90
2023-03-18T13:01:35.007Z,2.10
2023-03-18T13:04:05.493Z,2.30
2023-03-18T13:06:39.300Z,2.10
2023-03-18T13:09:11.192Z,2.40
2023-03-18T13:11:49.381Z,2.47
2023-03-18T13:14:24.775Z,2.13
2023-03-18T13:16:53.205Z,1.47
2023-03-18T13:19:20.869Z,2.13
2023-03-18T13:21:51.777Z,1.90
2023-03-18T13:24:30.630Z,1.87
2023-03-18T13:27:09.856Z,2.07
2023-03-18T13:29:44.948Z,2.20
2023-03-18T13:32:39.834Z,2.20
2023-03-18T13:35:34.875Z,2.30
2023-03-18T13:38:39.046Z,2.23
2023-03-18T13:41:16.455Z,2.00
2023-03-18T13:43:49.297Z,2.30
2023-03-18T13:46:20.921Z,2.00
2023-03-18T13:48:49.404Z,1.97
2023-03-18T13:51:21.764Z,2.30
2023-03-18T13:53:50.721Z,2.60
2023-03-18T13:56:29.998Z,1.93
2023-03-18T13:58:57.744Z,2.10
2023-03-18T14:01:33.467Z,2.00
2023-03-18T14:04:05.196Z,1.90
2023-03-18T14:06:57.454Z,2.43
2023-03-18T14:10:02.536Z,2.33
2023-03-18T14:12:41.227Z,2.10
2023-03-18T14:15:37.696Z,1.93
2023-03-18T14:18:19.907Z,2.73
2023-03-18T14:20:47.930Z,2.30
2023-03-18T14:23:40.270Z,2.23
2023-03-18T14:26:22.340Z,2.13
2023-03-18T14:28:54.951Z,2.43
2023-03-18T14:31:32.434Z,2.80
2023-03-18T14:34:21.081Z,2.40
2023-03-18T14:37:24.203Z,2.40
2023-03-18T14:39:53.821Z,2.60
2023-03-18T14:42:35.519Z,2.60
2023-03-18T14:45:07.222Z,2.80
2023-03-18T14:47:42.190Z,2.73
2023-03-18T14:50:18.129Z,2.63
2023-03-18T14:52:50.880Z,2.60
2023-03-18T14:55:21.424Z,2.93
2023-03-18T14:57:49.044Z,2.30
2023-03-18T15:00:18.393Z,2.50
2023-03-18T15:02:46.502Z,2.77
2023-03-18T15:05:18.615Z,2.87
2023-03-18T15:07:52.653Z,2.37
2023-03-18T15:10:24.494Z,2.27
2023-03-18T15:12:59.598Z,2.30
2023-03-18T15:15:28.129Z,2.10
2023-03-18T15:17:55.674Z,2.00
2023-03-18T15:20:24.689Z,2.00
2023-03-18T15:22:52.807Z,2.13
2023-03-18T15:25:21.374Z,1.70
2023-03-18T15:27:50.081Z,2.00
2023-03-18T15:30:25.702Z,1.73
2023-03-18T15:32:56.721Z,1.87
2023-03-18T15:35:28.696Z,1.53
2023-03-18T15:38:07.816Z,1.90
2023-03-18T15:40:38.014Z,1.70
2023-03-18T15:43:13.317Z,2.03
2023-03-18T15:45:43.597Z,1.80
2023-03-18T15:48:23.353Z,1.87
2023-03-18T15:50:58.248Z,2.10
2023-03-18T15:53:27.189Z,1.50
2023-03-18T15:55:56.382Z,1.90
2023-03-18T15:58:26.733Z,1.90
2023-03-18T16:00:55.558Z,1.57
2023-03-18T16:03:24.919Z,1.80
2023-03-18T16:05:53.861Z,1.83
2023-03-18T16:08:23.698Z,1.70
2023-03-18T16:10:52.926Z,1.70
2023-03-18T16:13:24.377Z,1.70
2023-03-18T16:15:52.643Z,1.80
2023-03-18T16:18:20.374Z,1.60
2023-03-18T16:20:48.781Z,1.83
2023-03-18T16:23:17.683Z,1.60
2023-03-18T16:25:48.705Z,2.10
2023-03-18T16:28:20.605Z,1.80
2023-03-18T16:30:49.515Z,1.90
2023-03-18T16:33:18.268Z,1.50
2023-03-18T16:35:47.271Z,1.70
2023-03-18T16:38:17.205Z,1.67
2023-03-18T16:40:47.224Z,2.20
2023-03-18T16:43:18.234Z,1.37
2023-03-18T16:45:47.352Z,1.97
2023-03-18T16:48:17.586Z,1.77
2023-03-18T16:50:47.504Z,2.00
2023-03-18T16:53:18.377Z,1.60
2023-03-18T16:55:48.391Z,1.67
2023-03-18T16:58:17.775Z,2.47
2023-03-18T17:00:48.162Z,1.53
2023-03-18T17:03:18.124Z,1.60
2023-03-18T17:05:47.195Z,2.10
2023-03-18T17:08:14.844Z,1.73
2023-03-18T17:10:43.791Z,2.13
2023-03-18T17:13:18.958Z,1.53
2023-03-18T17:15:46.922Z,2.03
2023-03-18T17:18:16.714Z,2.07
2023-03-18T17:20:45.658Z,2.77
2023-03-18T17:23:16.825Z,2.67
2023-03-18T17:25:48.534Z,2.10
2023-03-18T17:28:23.418Z,2.37
2023-03-18T17:30:51.412Z,2.67
2023-03-18T17:33:25.135Z,2.20
2023-03-18T17:35:53.278Z,2.60
2023-03-18T17:38:21.526Z,2.77
2023-03-18T17:40:49.263Z,2.30
2023-03-18T17:43:27.425Z,2.10
2023-03-18T17:45:56.494Z,2.00
2023-03-18T17:48:25.627Z,2.60
2023-03-18T17:50:55.189Z,1.80
2023-03-18T17:53:25.866Z,2.20
2023-03-18T17:55:54.834Z,3.47
2023-03-18T17:58:26.050Z,3.90
2023-03-18T18:00:54.846Z,3.03
2023-03-18T18:03:25.558Z,3.10
2023-03-18T18:05:53.921Z,2.87
2023-03-18T18:08:22.740Z,2.83
2023-03-18T18:10:50.731Z,2.90
2023-03-18T18:13:19.923Z,2.73
2023-03-18T18:15:49.474Z,2.50
2023-03-18T18:18:24.035Z,3.03
2023-03-18T18:20:54.795Z,3.03
2023-03-18T18:23:28.749Z,2.60
2023-03-18T18:25:58.791Z,2.90
2023-03-18T18:28:30.578Z,2.67
2023-03-18T18:30:59.965Z,2.90
2023-03-18T18:33:28.077Z,2.77
2023-03-18T18:35:56.320Z,2.90
2023-03-18T18:38:25.703Z,2.50
2023-03-18T18:40:53.979Z,3.70
2023-03-18T18:43:21.819Z,3.07
2023-03-18T18:45:49.844Z,3.17
2023-03-18T18:48:20.542Z,3.30
2023-03-18T18:50:48.571Z,2.60
2023-03-18T18:53:19.909Z,2.97
2023-03-18T18:55:47.609Z,2.87
2023-03-18T18:58:17.706Z,3.00
2023-03-18T19:00:46.338Z,3.57
2023-03-18T19:03:15.515Z,3.80
2023-03-18T19:05:45.944Z,3.27
2023-03-18T19:08:25.026Z,3.33
2023-03-18T19:10:54.000Z,3.90
2023-03-18T19:13:21.781Z,3.10
2023-03-18T19:15:49.999Z,3.50
2023-03-18T19:18:19.776Z,3.43
2023-03-18T19:20:49.551Z,3.07
2023-03-18T19:23:17.833Z,3.90
2023-03-18T19:25:46.326Z,3.40
2023-03-18T19:28:17.188Z,3.93
2023-03-18T19:30:45.620Z,3.60
2023-03-18T19:33:15.674Z,3.20
2023-03-18T19:35:43.635Z,3.70
2023-03-18T19:38:19.402Z,3.53
2023-03-18T19:40:48.790Z,3.60
2023-03-18T19:43:17.674Z,3.63
2023-03-18T19:45:46.228Z,3.30
2023-03-18T19:48:17.135Z,3.27
2023-03-18T19:50:45.135Z,3.33
2023-03-18T19:53:13.897Z,3.73
2023-03-18T19:55:43.527Z,2.90
2023-03-18T19:58:16.208Z,3.57
2023-03-18T20:00:45.710Z,2.93
2023-03-18T20:03:15.671Z,3.07
2023-03-18T20:05:43.250Z,3.03
2023-03-18T20:08:10.824Z,3.40
2023-03-18T20:10:38.690Z,3.37
2023-03-18T20:13:07.744Z,2.93
2023-03-18T20:15:35.899Z,3.87
2023-03-18T20:18:03.697Z,3.40
2023-03-18T20:20:32.241Z,3.37
2023-03-18T20:23:02.041Z,3.33
2023-03-18T20:25:34.326Z,3.33
2023-03-18T20:28:04.510Z,3.03
2023-03-18T20:30:35.266Z,2.93
2023-03-18T20:33:04.404Z,3.10
2023-03-18T20:35:33.484Z,2.93
2023-03-18T20:38:04.915Z,3.03
2023-03-18T20:40:33.975Z,2.90
2023-03-18T20:43:01.629Z,3.40
2023-03-18T20:45:29.499Z,2.93
2023-03-18T20:47:58.498Z,2.57
2023-03-18T20:50:29.700Z,2.53
2023-03-18T20:52:57.520Z,2.83
2023-03-18T20:55:30.313Z,2.80
2023-03-18T20:57:58.265Z,2.97
2023-03-18T21:00:27.915Z,2.70
2023-03-18T21:02:58.563Z,3.03
2023-03-18T21:05:27.510Z,3.00
2023-03-18T21:07:55.202Z,3.37
2023-03-18T21:10:24.409Z,2.67
2023-03-18T21:12:52.640Z,2.80
2023-03-18T21:15:22.291Z,2.70
2023-03-18T21:17:50.383Z,2.23
2023-03-18T21:20:22.690Z,2.40
2023-03-18T21:22:51.330Z,3.03
2023-03-18T21:25:20.496Z,3.57
2023-03-18T21:27:48.230Z,3.70
2023-03-18T21:30:17.361Z,3.67
2023-03-18T21:32:46.197Z,3.93
2023-03-18T21:35:19.670Z,3.10
2023-03-18T21:37:47.308Z,2.50
2023-03-18T21:40:17.044Z,2.93
2023-03-18T21:42:44.706Z,2.27
2023-03-18T21:45:13.573Z,2.13
2023-03-18T21:47:41.252Z,1.97
2023-03-18T21:50:13.308Z,2.27
2023-03-18T21:52:42.417Z,2.00
2023-03-18T21:55:13.214Z,1.53
2023-03-18T21:57:40.965Z,1.90
2023-03-18T22:00:09.977Z,1.50
2023-03-18T22:02:38.599Z,1.80
2023-03-18T22:05:11.307Z,1.67
2023-03-18T22:07:38.911Z,1.90
2023-03-18T22:10:08.896Z,2.10
2023-03-18T22:12:36.558Z,2.37
2023-03-18T22:15:04.738Z,2.37
2023-03-18T22:17:34.235Z,2.07
2023-03-18T22:20:02.907Z,1.87
2023-03-18T22:22:31.474Z,2.60
2023-03-18T22:24:59.151Z,2.30
2023-03-18T22:27:29.260Z,2.23
2023-03-18T22:29:58.672Z,2.30
2023-03-18T22:32:38.707Z,2.10
2023-03-18T22:35:08.766Z,2.50
2023-03-18T22:37:36.340Z,2.60
2023-03-18T22:40:04.361Z,2.07
2023-03-18T22:42:33.519Z,2.87
2023-03-18T22:45:01.176Z,2.60
2023-03-18T22:47:28.708Z,2.33
2023-03-18T22:49:56.238Z,2.23
2023-03-18T22:52:24.996Z,3.60
2023-03-18T22:54:54.234Z,4.60
2023-03-18T22:57:24.673Z,4.77
2023-03-18T22:59:53.731Z,4.40
2023-03-18T23:02:22.986Z,4.90
2023-03-18T23:04:51.935Z,4.33
2023-03-18T23:07:27.865Z,3.97
2023-03-18T23:09:57.348Z,3.60
2023-03-18T23:12:26.745Z,3.90
2023-03-18T23:14:55.670Z,3.63
2023-03-18T23:17:25.693Z,2.93
2023-03-18T23:19:54.127Z,3.47
2023-03-18T23:22:24.771Z,2.60
2023-03-18T23:24:52.839Z,3.10
2023-03-18T23:27:20.404Z,2.77
2023-03-18T23:29:48.109Z,2.73
2023-03-18T23:32:18.166Z,2.50
2023-03-18T23:34:46.781Z,2.30
2023-03-18T23:37:15.461Z,2.60
2023-03-18T23:39:45.989Z,2.37
2023-03-18T23:42:14.301Z,3.17
2023-03-18T23:44:41.934Z,2.67
2023-03-18T23:47:11.059Z,2.63
2023-03-18T23:49:40.800Z,3.17
2023-03-18T23:52:10.702Z,3.20
2023-03-18T23:54:39.276Z,3.07
2023-03-18T23:57:08.597Z,3.53
2023-03-18T23:59:36.647Z,3.10
